createdAt,value
2018-05-03T00:00:05.918Z,10.10
2018-05-03T00:01:06.065Z,10.03
2018-05-03T00:02:06.302Z,9.81
2018-05-03T00:03:06.371Z,9.81
2018-05-03T00:04:06.522Z,9.83
2018-05-03T00:05:06.671Z,9.71
2018-05-03T00:06:06.823Z,9.75
2018-05-03T00:07:06.973Z,9.67
2018-05-03T00:08:07.125Z,9.76
2018-05-03T00:09:07.274Z,9.78
2018-05-03T00:10:07.427Z,9.64
2018-05-03T00:11:07.581Z,9.60
2018-05-03T00:12:07.726Z,9.61
2018-05-03T00:13:07.878Z,9.48
2018-05-03T00:14:08.030Z,9.32
2018-05-03T00:15:08.181Z,9.25
2018-05-03T00:16:08.330Z,9.24
2018-05-03T00:17:08.482Z,9.23
2018-05-03T00:18:08.633Z,9.18
2018-05-03T00:19:08.782Z,9.27
2018-05-03T00:20:08.933Z,9.25
2018-05-03T00:21:09.085Z,9.25
2018-05-03T00:22:09.237Z,9.16
2018-05-03T00:23:09.384Z,9.18
2018-05-03T00:24:09.536Z,9.23
2018-05-03T00:25:09.689Z,9.25
2018-05-03T00:26:09.837Z,9.21
2018-05-03T00:27:09.988Z,9.27
2018-05-03T00:28:10.138Z,9.24
2018-05-03T00:29:10.288Z,9.23
2018-05-03T00:30:10.436Z,9.38
2018-05-03T00:31:10.589Z,9.42
2018-05-03T00:32:10.735Z,9.40
2018-05-03T00:33:10.885Z,9.38
2018-05-03T00:34:11.038Z,9.40
2018-05-03T00:35:11.187Z,9.38
2018-05-03T00:36:11.338Z,9.34
2018-05-03T00:37:11.486Z,9.28
2018-05-03T00:38:11.637Z,9.16
2018-05-03T00:39:11.788Z,9.21
2018-05-03T00:40:11.937Z,9.15
2018-05-03T00:41:12.091Z,9.10
2018-05-03T00:42:12.239Z,8.96
2018-05-03T00:43:12.388Z,8.87
2018-05-03T00:44:12.540Z,8.78
2018-05-03T00:45:12.690Z,8.71
2018-05-03T00:46:12.840Z,8.86
2018-05-03T00:47:12.991Z,8.86
2018-05-03T00:48:13.143Z,8.86
2018-05-03T00:49:13.292Z,8.83
2018-05-03T00:50:13.440Z,8.83
2018-05-03T00:51:13.593Z,8.63
2018-05-03T00:52:13.746Z,8.65
2018-05-03T00:53:13.895Z,8.75
2018-05-03T00:54:14.044Z,8.62
2018-05-03T00:55:14.195Z,8.79
2018-05-03T00:56:14.347Z,8.63
2018-05-03T00:57:14.497Z,8.87
2018-05-03T00:58:14.652Z,8.65
2018-05-03T00:59:14.798Z,8.51
2018-05-03T01:00:14.946Z,8.40
2018-05-03T01:01:15.095Z,8.47
2018-05-03T01:02:15.252Z,8.48
2018-05-03T01:03:15.399Z,8.62
2018-05-03T01:04:15.548Z,8.66
2018-05-03T01:05:15.697Z,8.58
2018-05-03T01:06:15.889Z,8.57
2018-05-03T01:07:15.997Z,8.48
2018-05-03T01:08:16.151Z,8.48
2018-05-03T01:09:16.297Z,8.60
2018-05-03T01:10:16.452Z,8.54
2018-05-03T01:11:16.601Z,8.48
2018-05-03T01:12:16.755Z,8.45
2018-05-03T01:13:16.910Z,8.48
2018-05-03T01:14:17.058Z,8.54
2018-05-03T01:15:17.209Z,8.65
2018-05-03T01:16:17.357Z,8.69
2018-05-03T01:17:17.505Z,8.72
2018-05-03T01:18:17.654Z,8.60
2018-05-03T01:19:17.810Z,8.63
2018-05-03T01:20:17.959Z,8.63
2018-05-03T01:21:18.107Z,8.66
2018-05-03T01:22:18.254Z,8.66
2018-05-03T01:23:18.405Z,8.68
2018-05-03T01:24:18.558Z,8.76
2018-05-03T01:25:18.708Z,8.62
2018-05-03T01:26:18.854Z,8.75
2018-05-03T01:27:19.005Z,8.75
2018-05-03T01:28:19.155Z,8.76
2018-05-03T01:29:19.305Z,8.86
2018-05-03T01:30:19.450Z,8.83
2018-05-03T01:31:19.598Z,8.83
2018-05-03T01:32:19.749Z,8.91
2018-05-03T01:33:19.898Z,8.93
2018-05-03T01:34:20.051Z,8.83
2018-05-03T01:35:20.198Z,8.79
2018-05-03T01:36:20.350Z,8.86
2018-05-03T01:37:20.498Z,8.76
2018-05-03T01:38:20.647Z,8.66
2018-05-03T01:39:20.797Z,8.71
2018-05-03T01:40:20.947Z,8.71
2018-05-03T01:41:21.097Z,8.63
2018-05-03T01:42:21.248Z,8.63
2018-05-03T01:43:21.397Z,8.73
2018-05-03T01:44:21.547Z,8.76
2018-05-03T01:45:21.699Z,8.75
2018-05-03T01:46:21.848Z,8.78
2018-05-03T01:47:21.997Z,8.84
2018-05-03T01:48:22.147Z,8.93
2018-05-03T01:49:22.297Z,8.87
2018-05-03T01:50:22.446Z,8.76
2018-05-03T01:51:22.596Z,8.78
2018-05-03T01:52:22.747Z,8.88
2018-05-03T01:53:22.901Z,8.73
2018-05-03T01:54:23.048Z,8.71
2018-05-03T01:55:23.198Z,8.66
2018-05-03T01:56:23.360Z,8.57
2018-05-03T01:57:23.513Z,8.50
2018-05-03T01:58:23.662Z,8.51
2018-05-03T01:59:23.811Z,8.53
2018-05-03T02:00:23.959Z,8.65
2018-05-03T02:01:24.112Z,8.71
2018-05-03T02:02:24.264Z,8.73
2018-05-03T02:03:24.413Z,8.72
2018-05-03T02:04:24.564Z,8.68
2018-05-03T02:05:24.713Z,8.57
2018-05-03T02:06:24.863Z,8.55
2018-05-03T02:07:25.015Z,8.63
2018-05-03T02:08:25.163Z,8.58
2018-05-03T02:09:25.313Z,8.68
2018-05-03T02:10:25.466Z,8.65
2018-05-03T02:11:25.618Z,8.57
2018-05-03T02:12:25.766Z,8.68
2018-05-03T02:13:25.918Z,8.81
2018-05-03T02:14:26.069Z,8.75
2018-05-03T02:15:26.219Z,8.71
2018-05-03T02:16:26.369Z,8.84
2018-05-03T02:17:26.520Z,8.72
2018-05-03T02:18:26.670Z,8.66
2018-05-03T02:19:26.819Z,8.55
2018-05-03T02:20:26.970Z,8.51
2018-05-03T02:21:27.118Z,8.47
2018-05-03T02:22:27.267Z,8.50
2018-05-03T02:23:27.418Z,8.47
2018-05-03T02:24:27.571Z,8.48
2018-05-03T02:25:27.719Z,8.58
2018-05-03T02:26:27.870Z,8.62
2018-05-03T02:27:28.017Z,8.65
2018-05-03T02:28:28.167Z,8.63
2018-05-03T02:29:28.320Z,8.65
2018-05-03T02:30:28.467Z,8.66
2018-05-03T02:31:28.619Z,8.65
2018-05-03T02:32:28.783Z,8.63
2018-05-03T02:33:28.922Z,8.55
2018-05-03T02:34:29.075Z,8.55
2018-05-03T02:35:29.226Z,8.51
2018-05-03T02:36:29.379Z,8.42
2018-05-03T02:37:29.528Z,8.57
2018-05-03T02:38:29.679Z,8.66
2018-05-03T02:39:29.827Z,8.66
2018-05-03T02:40:29.979Z,8.78
2018-05-03T02:41:30.129Z,8.75
2018-05-03T02:42:30.282Z,8.83
2018-05-03T02:43:30.435Z,8.79
2018-05-03T02:44:30.584Z,8.71
2018-05-03T02:45:30.736Z,8.54
2018-05-03T02:46:30.888Z,8.55
2018-05-03T02:47:31.035Z,8.53
2018-05-03T02:48:31.186Z,8.63
2018-05-03T02:49:31.338Z,8.60
2018-05-03T02:50:31.493Z,8.66
2018-05-03T02:51:31.644Z,8.75
2018-05-03T02:52:31.795Z,8.71
2018-05-03T02:53:31.941Z,8.68
2018-05-03T02:54:32.092Z,8.60
2018-05-03T02:55:32.239Z,8.66
2018-05-03T02:56:32.392Z,8.78
2018-05-03T02:57:32.544Z,8.72
2018-05-03T02:58:32.694Z,8.76
2018-05-03T02:59:32.848Z,8.78
2018-05-03T03:00:32.997Z,8.78
2018-05-03T03:01:33.149Z,8.63
2018-05-03T03:02:33.297Z,8.55
2018-05-03T03:03:33.447Z,8.58
2018-05-03T03:04:33.597Z,8.51
2018-05-03T03:05:33.748Z,8.68
2018-05-03T03:06:33.901Z,8.69
2018-05-03T03:07:34.049Z,8.60
2018-05-03T03:08:34.200Z,8.57
2018-05-03T03:09:34.381Z,8.60
2018-05-03T03:10:34.506Z,8.68
2018-05-03T03:11:34.660Z,8.66
2018-05-03T03:12:34.809Z,8.71
2018-05-03T03:13:34.960Z,8.63
2018-05-03T03:14:35.112Z,8.63
2018-05-03T03:15:35.265Z,8.72
2018-05-03T03:16:35.416Z,8.65
2018-05-03T03:17:35.566Z,8.72
2018-05-03T03:18:35.716Z,8.60
2018-05-03T03:19:35.866Z,8.65
2018-05-03T03:20:36.019Z,8.55
2018-05-03T03:21:36.169Z,8.54
2018-05-03T03:22:36.321Z,8.57
2018-05-03T03:23:36.470Z,8.53
2018-05-03T03:24:36.620Z,8.37
2018-05-03T03:25:36.771Z,8.50
2018-05-03T03:26:36.921Z,8.32
2018-05-03T03:27:37.071Z,8.29
2018-05-03T03:28:37.222Z,8.39
2018-05-03T03:29:37.370Z,8.28
2018-05-03T03:30:37.522Z,8.36
2018-05-03T03:31:37.673Z,8.39
2018-05-03T03:32:37.822Z,8.29
2018-05-03T03:33:37.970Z,8.29
2018-05-03T03:34:38.123Z,8.15
2018-05-03T03:35:38.274Z,8.18
2018-05-03T03:36:38.426Z,8.18
2018-05-03T03:37:38.575Z,8.18
2018-05-03T03:38:38.724Z,8.21
2018-05-03T03:39:38.876Z,8.18
2018-05-03T03:40:39.025Z,8.17
2018-05-03T03:41:39.177Z,8.21
2018-05-03T03:42:39.329Z,8.11
2018-05-03T03:43:39.467Z,8.18
2018-05-03T03:44:39.620Z,8.07
2018-05-03T03:45:39.768Z,7.94
2018-05-03T03:46:39.919Z,8.07
2018-05-03T03:47:40.065Z,8.04
2018-05-03T03:48:40.220Z,8.14
2018-05-03T03:49:40.364Z,8.11
2018-05-03T03:50:40.520Z,8.11
2018-05-03T03:51:40.667Z,8.17
2018-05-03T03:52:40.818Z,8.17
2018-05-03T03:53:40.969Z,8.18
2018-05-03T03:54:41.119Z,8.22
2018-05-03T03:55:41.274Z,8.18
2018-05-03T03:56:41.419Z,8.20
2018-05-03T03:57:41.571Z,8.22
2018-05-03T03:58:41.724Z,8.37
2018-05-03T03:59:41.869Z,8.30
2018-05-03T04:00:42.021Z,8.40
2018-05-03T04:01:42.173Z,8.42
2018-05-03T04:02:42.321Z,8.45
2018-05-03T04:03:42.472Z,8.37
2018-05-03T04:04:42.625Z,8.42
2018-05-03T04:05:42.771Z,8.40
2018-05-03T04:06:42.925Z,8.35
2018-05-03T04:07:43.075Z,8.42
2018-05-03T04:08:43.211Z,8.30
2018-05-03T04:09:43.377Z,8.21
2018-05-03T04:10:43.530Z,8.14
2018-05-03T04:11:43.679Z,8.26
2018-05-03T04:12:43.831Z,8.33
2018-05-03T04:13:43.979Z,8.36
2018-05-03T04:14:44.130Z,8.40
2018-05-03T04:15:44.281Z,8.39
2018-05-03T04:16:44.430Z,8.30
2018-05-03T04:17:44.591Z,8.35
2018-05-03T04:18:44.733Z,8.44
2018-05-03T04:19:44.883Z,8.36
2018-05-03T04:20:45.034Z,8.39
2018-05-03T04:21:45.184Z,8.40
2018-05-03T04:22:45.334Z,8.40
2018-05-03T04:23:45.486Z,8.36
2018-05-03T04:24:45.636Z,8.32
2018-05-03T04:25:45.787Z,8.37
2018-05-03T04:26:45.938Z,8.33
2018-05-03T04:27:46.090Z,8.29
2018-05-03T04:28:46.238Z,8.32
2018-05-03T04:29:46.391Z,8.36
2018-05-03T04:30:46.540Z,8.48
2018-05-03T04:31:46.691Z,8.54
2018-05-03T04:32:46.847Z,8.54
2018-05-03T04:33:46.994Z,8.66
2018-05-03T04:34:47.146Z,8.71
2018-05-03T04:35:47.289Z,8.68
2018-05-03T04:36:47.441Z,8.53
2018-05-03T04:37:47.588Z,8.57
2018-05-03T04:38:47.739Z,8.48
2018-05-03T04:39:47.888Z,8.47
2018-05-03T04:40:48.047Z,8.45
2018-05-03T04:41:48.190Z,8.57
2018-05-03T04:42:48.340Z,8.63
2018-05-03T04:43:48.493Z,8.69
2018-05-03T04:44:48.642Z,8.75
2018-05-03T04:45:48.813Z,8.83
2018-05-03T04:46:48.944Z,8.84
2018-05-03T04:47:49.094Z,8.88
2018-05-03T04:48:49.248Z,9.01
2018-05-03T04:49:49.398Z,8.94
2018-05-03T04:50:49.547Z,9.05
2018-05-03T04:51:49.698Z,9.06
2018-05-03T04:52:49.847Z,9.12
2018-05-03T04:53:50.003Z,9.13
2018-05-03T04:54:50.149Z,9.23
2018-05-03T04:55:50.299Z,9.04
2018-05-03T04:56:50.452Z,9.02
2018-05-03T04:57:50.603Z,9.04
2018-05-03T04:58:50.753Z,8.96
2018-05-03T04:59:50.905Z,9.09
2018-05-03T05:00:51.059Z,9.09
2018-05-03T05:01:51.208Z,8.90
2018-05-03T05:02:51.403Z,9.06
2018-05-03T05:03:51.509Z,9.18
2018-05-03T05:04:51.690Z,9.13
2018-05-03T05:05:51.812Z,9.27
2018-05-03T05:06:51.960Z,9.30
2018-05-03T05:07:52.117Z,9.35
2018-05-03T05:08:52.266Z,9.24
2018-05-03T05:09:52.416Z,9.06
2018-05-03T05:10:52.568Z,9.25
2018-05-03T05:11:52.721Z,9.38
2018-05-03T05:12:52.872Z,9.52
2018-05-03T05:13:53.023Z,9.56
2018-05-03T05:14:53.178Z,9.46
2018-05-03T05:15:53.327Z,9.50
2018-05-03T05:16:53.477Z,9.49
2018-05-03T05:17:53.669Z,9.35
2018-05-03T05:18:53.784Z,9.45
2018-05-03T05:19:53.934Z,9.58
2018-05-03T05:20:54.086Z,9.50
2018-05-03T05:21:54.235Z,9.49
2018-05-03T05:22:54.389Z,9.43
2018-05-03T05:23:54.541Z,9.61
2018-05-03T05:24:54.694Z,9.57
2018-05-03T05:25:54.843Z,9.52
2018-05-03T05:26:54.994Z,9.53
2018-05-03T05:27:55.146Z,9.40
2018-05-03T05:28:55.452Z,9.38
2018-05-03T05:29:55.468Z,9.53
2018-05-03T05:30:55.658Z,9.57
2018-05-03T05:31:55.794Z,9.67
2018-05-03T05:32:55.954Z,9.73
2018-05-03T05:33:56.050Z,9.85
2018-05-03T05:34:56.204Z,9.76
2018-05-03T05:35:56.356Z,9.97
2018-05-03T05:36:56.508Z,10.04
2018-05-03T05:37:56.661Z,10.06
2018-05-03T05:38:56.920Z,10.12
2018-05-03T05:39:56.964Z,10.12
2018-05-03T05:40:57.116Z,10.07
2018-05-03T05:41:57.274Z,10.09
2018-05-03T05:42:57.419Z,10.18
2018-05-03T05:43:57.572Z,10.32
2018-05-03T05:44:57.728Z,10.24
2018-05-03T05:45:57.879Z,10.12
2018-05-03T05:46:58.027Z,10.10
2018-05-03T05:47:58.179Z,10.19
2018-05-03T05:48:58.331Z,10.28
2018-05-03T05:49:58.482Z,10.24
2018-05-03T05:50:58.700Z,10.39
2018-05-03T05:51:58.785Z,10.46
2018-05-03T05:52:58.939Z,10.51
2018-05-03T05:53:59.092Z,10.42
2018-05-03T05:54:59.243Z,10.34
2018-05-03T05:55:59.395Z,10.46
2018-05-03T05:56:59.549Z,10.52
2018-05-03T05:57:59.904Z,10.66
2018-05-03T05:58:59.925Z,10.74
2018-05-03T06:00:00.094Z,10.59
2018-05-03T06:01:00.246Z,10.44
2018-05-03T06:02:00.405Z,10.40
2018-05-03T06:03:00.560Z,10.17
2018-05-03T06:04:00.722Z,10.12
2018-05-03T06:05:00.859Z,10.09
2018-05-03T06:06:01.012Z,10.10
2018-05-03T06:07:01.164Z,10.40
2018-05-03T06:08:01.314Z,10.53
2018-05-03T06:09:01.467Z,10.66
2018-05-03T06:10:01.621Z,10.63
2018-05-03T06:11:01.777Z,10.76
2018-05-03T06:12:01.934Z,10.95
2018-05-03T06:13:02.083Z,10.73
2018-05-03T06:14:02.236Z,10.76
2018-05-03T06:15:02.385Z,10.94
2018-05-03T06:16:02.542Z,11.01
2018-05-03T06:17:02.694Z,11.13
2018-05-03T06:18:02.842Z,11.28
2018-05-03T06:19:03.001Z,11.20
2018-05-03T06:20:03.139Z,11.25
2018-05-03T06:21:03.295Z,11.43
2018-05-03T06:22:03.446Z,11.56
2018-05-03T06:23:03.595Z,11.61
2018-05-03T06:24:03.749Z,11.65
2018-05-03T06:25:03.900Z,11.67
2018-05-03T06:26:04.120Z,11.72
2018-05-03T06:27:04.207Z,11.46
2018-05-03T06:28:04.357Z,11.27
2018-05-03T06:29:04.508Z,11.36
2018-05-03T06:30:04.661Z,11.36
2018-05-03T06:31:04.814Z,11.24
2018-05-03T06:32:04.965Z,11.20
2018-05-03T06:33:05.120Z,11.19
2018-05-03T06:34:05.276Z,11.25
2018-05-03T06:35:05.423Z,11.38
2018-05-03T06:36:05.575Z,11.44
2018-05-03T06:37:05.728Z,11.44
2018-05-03T06:38:05.881Z,11.41
2018-05-03T06:39:06.034Z,11.38
2018-05-03T06:40:06.182Z,11.21
2018-05-03T06:41:06.335Z,11.38
2018-05-03T06:42:06.494Z,11.36
2018-05-03T06:43:06.639Z,11.54
2018-05-03T06:44:06.791Z,11.65
2018-05-03T06:45:06.945Z,11.70
2018-05-03T06:46:07.098Z,11.70
2018-05-03T06:47:07.252Z,11.87
2018-05-03T06:48:07.403Z,11.87
2018-05-03T06:49:07.563Z,12.02
2018-05-03T06:50:07.707Z,12.02
2018-05-03T06:51:07.862Z,12.01
2018-05-03T06:52:08.020Z,12.12
2018-05-03T06:53:08.166Z,11.99
2018-05-03T06:54:08.321Z,12.19
2018-05-03T06:55:08.473Z,12.31
2018-05-03T06:56:08.629Z,12.31
2018-05-03T06:57:08.779Z,12.39
2018-05-03T06:58:08.932Z,12.42
2018-05-03T06:59:09.083Z,12.49
2018-05-03T07:00:09.240Z,12.59
2018-05-03T07:01:09.390Z,12.82
2018-05-03T07:02:09.545Z,12.88
2018-05-03T07:03:09.693Z,12.95
2018-05-03T07:04:09.950Z,13.04
2018-05-03T07:05:10.001Z,12.99
2018-05-03T07:06:10.152Z,13.09
2018-05-03T07:07:10.307Z,13.07
2018-05-03T07:08:10.466Z,13.27
2018-05-03T07:09:10.613Z,13.38
2018-05-03T07:10:10.771Z,13.30
2018-05-03T07:11:10.919Z,13.40
2018-05-03T07:12:11.074Z,13.30
2018-05-03T07:13:11.225Z,13.46
2018-05-03T07:14:11.375Z,13.43
2018-05-03T07:15:11.528Z,13.37
2018-05-03T07:16:11.716Z,13.24
2018-05-03T07:17:11.832Z,13.43
2018-05-03T07:18:11.984Z,13.38
2018-05-03T07:19:12.139Z,13.40
2018-05-03T07:20:12.296Z,13.21
2018-05-03T07:21:12.445Z,13.30
2018-05-03T07:22:12.596Z,13.33
2018-05-03T07:23:12.751Z,13.41
2018-05-03T07:24:12.907Z,13.43
2018-05-03T07:25:13.064Z,13.47
2018-05-03T07:26:13.214Z,13.51
2018-05-03T07:27:13.372Z,13.76
2018-05-03T07:28:13.522Z,13.84
2018-05-03T07:29:13.678Z,13.98
2018-05-03T07:30:13.833Z,14.20
2018-05-03T07:31:13.984Z,14.17
2018-05-03T07:32:14.134Z,14.10
2018-05-03T07:33:14.287Z,13.98
2018-05-03T07:34:14.454Z,13.88
2018-05-03T07:35:14.594Z,13.95
2018-05-03T07:36:14.751Z,14.04
2018-05-03T07:37:14.908Z,14.06
2018-05-03T07:38:15.063Z,14.04
2018-05-03T07:39:15.217Z,14.09
2018-05-03T07:40:15.368Z,14.01
2018-05-03T07:41:15.523Z,13.99
2018-05-03T07:42:15.677Z,13.98
2018-05-03T07:43:15.829Z,13.88
2018-05-03T07:44:15.982Z,13.83
2018-05-03T07:45:16.130Z,13.89
2018-05-03T07:46:16.284Z,13.89
2018-05-03T07:47:16.440Z,13.92
2018-05-03T07:48:16.590Z,13.73
2018-05-03T07:49:16.743Z,13.79
2018-05-03T07:50:16.899Z,13.69
2018-05-03T07:51:17.049Z,13.77
2018-05-03T07:52:17.224Z,13.70
2018-05-03T07:53:17.378Z,13.63
2018-05-03T07:54:17.531Z,13.76
2018-05-03T07:55:17.688Z,13.76
2018-05-03T07:56:17.839Z,13.71
2018-05-03T07:57:17.988Z,13.79
2018-05-03T07:58:18.145Z,13.77
2018-05-03T07:59:18.298Z,13.81
2018-05-03T08:00:18.451Z,13.87
2018-05-03T08:01:18.609Z,13.81
2018-05-03T08:02:18.757Z,13.77
2018-05-03T08:03:18.910Z,13.89
2018-05-03T08:04:19.066Z,13.81
2018-05-03T08:05:19.228Z,13.94
2018-05-03T08:06:19.372Z,13.98
2018-05-03T08:07:19.529Z,13.92
2018-05-03T08:08:19.686Z,13.94
2018-05-03T08:09:19.837Z,13.98
2018-05-03T08:10:19.990Z,14.07
2018-05-03T08:11:20.142Z,13.94
2018-05-03T08:12:20.295Z,13.99
2018-05-03T08:13:20.445Z,13.80
2018-05-03T08:14:20.600Z,13.84
2018-05-03T08:15:20.752Z,13.98
2018-05-03T08:16:20.906Z,14.20
2018-05-03T08:17:21.059Z,14.19
2018-05-03T08:18:21.209Z,14.21
2018-05-03T08:19:21.363Z,14.27
2018-05-03T08:20:21.518Z,14.32
2018-05-03T08:21:21.672Z,14.43
2018-05-03T08:22:21.846Z,14.50
2018-05-03T08:23:21.977Z,14.71
2018-05-03T08:24:22.132Z,14.83
2018-05-03T08:25:22.297Z,14.91
2018-05-03T08:26:22.447Z,14.99
2018-05-03T08:27:22.599Z,15.08
2018-05-03T08:28:22.748Z,15.03
2018-05-03T08:29:22.898Z,14.84
2018-05-03T08:30:23.053Z,14.87
2018-05-03T08:31:23.206Z,14.91
2018-05-03T08:32:23.360Z,15.11
2018-05-03T08:33:23.517Z,15.28
2018-05-03T08:34:23.675Z,15.48
2018-05-03T08:35:23.828Z,15.43
2018-05-03T08:36:23.981Z,15.43
2018-05-03T08:37:24.136Z,15.36
2018-05-03T08:38:24.289Z,15.09
2018-05-03T08:39:24.445Z,15.27
2018-05-03T08:40:24.601Z,15.13
2018-05-03T08:41:24.755Z,15.30
2018-05-03T08:42:24.906Z,15.31
2018-05-03T08:43:25.063Z,15.31
2018-05-03T08:44:25.215Z,15.61
2018-05-03T08:45:25.372Z,15.72
2018-05-03T08:46:25.525Z,15.74
2018-05-03T08:47:25.678Z,15.72
2018-05-03T08:48:25.833Z,15.78
2018-05-03T08:49:25.989Z,15.96
2018-05-03T08:50:26.146Z,15.86
2018-05-03T08:51:26.301Z,16.15
2018-05-03T08:52:26.455Z,15.93
2018-05-03T08:53:26.610Z,15.96
2018-05-03T08:54:26.765Z,16.12
2018-05-03T08:55:27.002Z,16.44
2018-05-03T08:56:27.076Z,16.49
2018-05-03T08:57:27.233Z,16.23
2018-05-03T08:58:27.387Z,16.16
2018-05-03T08:59:27.542Z,16.12
2018-05-03T09:00:27.697Z,16.48
2018-05-03T09:01:27.895Z,16.53
2018-05-03T09:02:28.006Z,16.48
2018-05-03T09:03:28.160Z,16.62
2018-05-03T09:04:28.315Z,16.77
2018-05-03T09:05:28.471Z,16.25
2018-05-03T09:06:28.623Z,15.99
2018-05-03T09:07:28.821Z,15.72
2018-05-03T09:08:28.936Z,15.78
2018-05-03T09:09:29.088Z,15.76
2018-05-03T09:10:29.245Z,15.81
2018-05-03T09:11:29.400Z,15.86
2018-05-03T09:12:29.554Z,15.70
2018-05-03T09:13:29.716Z,15.66
2018-05-03T09:14:29.869Z,15.68
2018-05-03T09:15:30.025Z,16.12
2018-05-03T09:16:30.181Z,16.48
2018-05-03T09:17:30.337Z,16.62
2018-05-03T09:18:30.497Z,16.73
2018-05-03T09:19:30.651Z,16.92
2018-05-03T09:20:30.803Z,17.03
2018-05-03T09:21:30.962Z,17.28
2018-05-03T09:22:31.131Z,17.06
2018-05-03T09:23:31.273Z,17.07
2018-05-03T09:24:31.431Z,16.95
2018-05-03T09:25:31.583Z,16.56
2018-05-03T09:26:31.740Z,16.44
2018-05-03T09:27:31.896Z,16.35
2018-05-03T09:28:32.051Z,16.53
2018-05-03T09:29:32.208Z,16.12
2018-05-03T09:30:32.364Z,16.18
2018-05-03T09:31:32.522Z,16.16
2018-05-03T09:32:32.675Z,15.86
2018-05-03T09:33:32.830Z,16.00
2018-05-03T09:34:32.989Z,16.20
2018-05-03T09:35:33.147Z,16.37
2018-05-03T09:36:33.300Z,16.49
2018-05-03T09:37:33.456Z,16.58
2018-05-03T09:38:33.613Z,16.48
2018-05-03T09:39:33.771Z,16.68
2018-05-03T09:40:33.925Z,16.23
2018-05-03T09:41:34.083Z,16.11
2018-05-03T09:42:34.237Z,16.20
2018-05-03T09:43:34.394Z,16.20
2018-05-03T09:44:34.551Z,16.60
2018-05-03T09:45:34.709Z,16.53
2018-05-03T09:46:34.860Z,16.53
2018-05-03T09:47:35.021Z,16.77
2018-05-03T09:48:35.173Z,16.74
2018-05-03T09:49:35.329Z,16.98
2018-05-03T09:50:35.490Z,16.99
2018-05-03T09:51:35.644Z,17.06
2018-05-03T09:52:35.841Z,17.29
2018-05-03T09:53:35.959Z,17.41
2018-05-03T09:54:36.116Z,17.36
2018-05-03T09:55:36.269Z,17.40
2018-05-03T09:56:36.426Z,17.33
2018-05-03T09:57:36.585Z,17.15
2018-05-03T09:58:36.739Z,17.28
2018-05-03T09:59:36.898Z,17.11
2018-05-03T10:00:37.057Z,17.04
2018-05-03T10:01:37.217Z,16.74
2018-05-03T10:02:37.373Z,16.70
2018-05-03T10:03:37.531Z,16.81
2018-05-03T10:04:37.688Z,16.63
2018-05-03T10:05:37.845Z,16.71
2018-05-03T10:06:38.000Z,16.59
2018-05-03T10:07:38.157Z,16.75
2018-05-03T10:08:38.311Z,16.83
2018-05-03T10:09:38.465Z,17.17
2018-05-03T10:10:38.634Z,17.17
2018-05-03T10:11:38.790Z,16.95
2018-05-03T10:12:38.945Z,16.55
2018-05-03T10:13:39.104Z,16.37
2018-05-03T10:14:39.270Z,16.38
2018-05-03T10:15:39.415Z,16.68
2018-05-03T10:16:39.574Z,16.80
2018-05-03T10:17:39.728Z,16.89
2018-05-03T10:18:39.891Z,16.88
2018-05-03T10:19:40.120Z,16.92
2018-05-03T10:20:40.250Z,16.92
2018-05-03T10:21:40.352Z,16.98
2018-05-03T10:22:40.577Z,16.71
2018-05-03T10:23:40.664Z,16.63
2018-05-03T10:24:40.818Z,16.58
2018-05-03T10:25:40.992Z,16.60
2018-05-03T10:26:41.139Z,16.34
2018-05-03T10:27:41.287Z,16.33
2018-05-03T10:28:41.444Z,16.50
2018-05-03T10:29:41.600Z,16.55
2018-05-03T10:30:41.753Z,16.27
2018-05-03T10:31:41.908Z,16.33
2018-05-03T10:32:42.064Z,15.92
2018-05-03T10:33:42.220Z,16.00
2018-05-03T10:34:42.385Z,16.03
2018-05-03T10:35:42.593Z,15.94
2018-05-03T10:36:42.685Z,15.89
2018-05-03T10:37:42.854Z,15.89
2018-05-03T10:38:42.995Z,15.93
2018-05-03T10:39:43.152Z,16.07
2018-05-03T10:40:43.306Z,15.97
2018-05-03T10:41:43.462Z,15.84
2018-05-03T10:42:43.617Z,15.85
2018-05-03T10:43:43.776Z,15.92
2018-05-03T10:44:43.929Z,15.99
2018-05-03T10:45:44.081Z,15.89
2018-05-03T10:46:44.238Z,15.94
2018-05-03T10:47:44.395Z,15.97
2018-05-03T10:48:44.594Z,15.84
2018-05-03T10:49:44.702Z,15.89
2018-05-03T10:50:44.858Z,15.93
2018-05-03T10:51:45.013Z,15.92
2018-05-03T10:52:45.170Z,15.78
2018-05-03T10:53:45.324Z,16.00
2018-05-03T10:54:45.479Z,16.09
2018-05-03T10:55:45.634Z,16.27
2018-05-03T10:56:45.788Z,16.18
2018-05-03T10:57:45.945Z,16.03
2018-05-03T10:58:46.097Z,15.88
2018-05-03T10:59:46.253Z,15.85
2018-05-03T11:00:46.407Z,15.99
2018-05-03T11:01:46.561Z,15.85
2018-05-03T11:02:46.715Z,15.82
2018-05-03T11:03:46.870Z,15.89
2018-05-03T11:04:47.027Z,15.93
2018-05-03T11:05:47.182Z,16.01
2018-05-03T11:06:47.378Z,16.11
2018-05-03T11:07:47.531Z,16.22
2018-05-03T11:08:47.688Z,16.40
2018-05-03T11:09:47.845Z,16.63
2018-05-03T11:10:47.999Z,16.83
2018-05-03T11:11:48.155Z,16.77
2018-05-03T11:12:48.311Z,16.58
2018-05-03T11:13:48.466Z,16.74
2018-05-03T11:14:48.628Z,16.78
2018-05-03T11:15:48.778Z,16.95
2018-05-03T11:16:48.934Z,17.03
2018-05-03T11:17:49.094Z,17.06
2018-05-03T11:18:49.245Z,17.06
2018-05-03T11:19:49.402Z,16.88
2018-05-03T11:20:49.557Z,16.93
2018-05-03T11:21:49.715Z,17.07
2018-05-03T11:22:49.867Z,16.98
2018-05-03T11:23:50.025Z,16.95
2018-05-03T11:24:50.183Z,17.03
2018-05-03T11:25:50.398Z,16.90
2018-05-03T11:26:50.491Z,17.03
2018-05-03T11:27:50.647Z,17.08
2018-05-03T11:28:50.805Z,17.30
2018-05-03T11:29:50.964Z,17.84
2018-05-03T11:30:51.122Z,18.15
2018-05-03T11:31:51.279Z,18.19
2018-05-03T11:32:51.435Z,18.27
2018-05-03T11:33:51.589Z,18.43
2018-05-03T11:34:51.746Z,18.19
2018-05-03T11:35:51.903Z,18.21
2018-05-03T11:36:52.138Z,17.41
2018-05-03T11:37:52.217Z,17.57
2018-05-03T11:38:52.376Z,17.43
2018-05-03T11:39:52.532Z,17.36
2018-05-03T11:40:52.694Z,17.69
2018-05-03T11:41:52.845Z,17.91
2018-05-03T11:42:53.005Z,18.18
2018-05-03T11:43:53.162Z,18.44
2018-05-03T11:44:53.318Z,18.36
2018-05-03T11:45:53.477Z,18.59
2018-05-03T11:46:53.635Z,18.70
2018-05-03T11:47:53.789Z,18.40
2018-05-03T11:48:54.017Z,18.61
2018-05-03T11:49:54.103Z,18.59
2018-05-03T11:50:54.259Z,18.37
2018-05-03T11:51:54.417Z,18.61
2018-05-03T11:52:54.575Z,18.73
2018-05-03T11:53:54.730Z,18.54
2018-05-03T11:54:54.889Z,18.09
2018-05-03T11:55:55.049Z,17.89
2018-05-03T11:56:55.207Z,17.74
2018-05-03T11:57:55.364Z,17.78
2018-05-03T11:58:55.521Z,17.95
2018-05-03T11:59:55.676Z,17.87
2018-05-03T12:00:55.835Z,18.10
2018-05-03T12:01:55.991Z,18.33
2018-05-03T12:02:56.149Z,18.61
2018-05-03T12:03:56.307Z,18.84
2018-05-03T12:04:56.470Z,19.02
2018-05-03T12:05:56.633Z,19.06
2018-05-03T12:06:56.789Z,18.99
2018-05-03T12:07:56.945Z,18.95
2018-05-03T12:08:57.099Z,18.19
2018-05-03T12:09:57.282Z,18.07
2018-05-03T12:10:57.416Z,18.04
2018-05-03T12:11:57.576Z,17.94
2018-05-03T12:12:57.737Z,17.94
2018-05-03T12:13:57.893Z,17.79
2018-05-03T12:14:58.048Z,17.84
2018-05-03T12:15:58.206Z,17.87
2018-05-03T12:16:58.368Z,18.24
2018-05-03T12:17:58.523Z,18.31
2018-05-03T12:18:58.679Z,18.43
2018-05-03T12:19:58.836Z,18.64
2018-05-03T12:20:58.992Z,18.99
2018-05-03T12:21:59.149Z,19.36
2018-05-03T12:22:59.310Z,19.53
2018-05-03T12:23:59.467Z,19.73
2018-05-03T12:24:59.626Z,19.76
2018-05-03T12:25:59.785Z,19.66
2018-05-03T12:26:59.944Z,19.80
2018-05-03T12:28:00.102Z,20.20
2018-05-03T12:29:00.260Z,19.76
2018-05-03T12:30:00.418Z,19.58
2018-05-03T12:31:00.577Z,19.35
2018-05-03T12:32:00.735Z,18.84
2018-05-03T12:33:00.908Z,18.42
2018-05-03T12:34:01.062Z,18.54
2018-05-03T12:35:01.207Z,18.52
2018-05-03T12:36:01.367Z,18.34
2018-05-03T12:37:01.523Z,18.58
2018-05-03T12:38:01.684Z,18.74
2018-05-03T12:39:01.839Z,18.33
2018-05-03T12:40:01.998Z,18.06
2018-05-03T12:41:02.158Z,18.17
2018-05-03T12:42:02.314Z,18.36
2018-05-03T12:43:02.475Z,18.82
2018-05-03T12:44:02.633Z,18.90
2018-05-03T12:45:02.792Z,18.86
2018-05-03T12:46:02.953Z,18.70
2018-05-03T12:47:03.108Z,18.65
2018-05-03T12:48:03.267Z,18.61
2018-05-03T12:49:03.428Z,18.34
2018-05-03T12:50:03.584Z,18.37
2018-05-03T12:51:03.740Z,18.73
2018-05-03T12:52:03.900Z,18.80
2018-05-03T12:53:04.055Z,18.95
2018-05-03T12:54:04.213Z,19.06
2018-05-03T12:55:04.371Z,19.15
2018-05-03T12:56:04.529Z,19.33
2018-05-03T12:57:04.689Z,19.43
2018-05-03T12:58:04.847Z,19.61
2018-05-03T12:59:05.006Z,19.86
2018-05-03T13:00:05.164Z,20.18
2018-05-03T13:01:05.322Z,20.41
2018-05-03T13:02:05.478Z,19.95
2018-05-03T13:03:05.639Z,20.12
2018-05-03T13:04:05.796Z,20.24
2018-05-03T13:05:05.953Z,20.33